This is the latest recevied weather packets stored in our database for station/object LRBS. If no packets are shown the sender has not sent any weather packets the latest 10 day(s).
| Time | Temp. | Humidity | Pressure | Rain* | Wind** | Luminosity | Snow |
|---|---|---|---|---|---|---|---|
| 1788370394 | 25° C | 57% | 1017 hPa | - | - | - | - |
| 1788369495 | 27.22° C | 48% | 1016 hPa | - | - | - | - |
| 1788367769 | 27.78° C | 45% | 1016 hPa | - | - | - | - |
| 1788365894 | 28.89° C | 43% | 1016 hPa | - | - | - | - |
| 1788365005 | 28.89° C | 43% | 1016 hPa | - | - | - | - |
| 1788359595 | 31.11° C | 38% | 1016 hPa | - | - | - | - |
| 1788358691 | 31.11° C | 35% | 1017 hPa | - | - | - | - |
| 1788357794 | 31.11° C | 35% | 1017 hPa | - | - | - | - |
| 1788356895 | 31.11° C | 38% | 1017 hPa | - | - | - | - |
| 1788355994 | 31.11° C | 38% | 1017 hPa | - | - | - | - |
| 1788355094 | 31.11° C | 38% | 1017 hPa | - | - | - | - |
| 1788353296 | 31.11° C | 38% | 1017 hPa | - | - | - | - |
| 1788352394 | 31.11° C | 38% | 1017 hPa | - | - | - | - |
| 1788351495 | 30° C | 40% | 1018 hPa | - | - | - | - |
| 1788350594 | 30° C | 40% | 1018 hPa | - | - | - | - |
| 1788348794 | 30° C | 40% | 1018 hPa | - | - | - | - |
| 1788347894 | 30° C | 43% | 1018 hPa | - | - | - | - |
| 1788346995 | 30° C | 43% | 1018 hPa | - | - | - | - |
| 1788345194 | 28.89° C | 43% | 1019 hPa | - | - | - | - |
| 1788344294 | 28.89° C | 45% | 1019 hPa | - | - | - | - |
| 1788343401 | 28.89° C | 45% | 1019 hPa | - | - | - | - |
| 1788342494 | 27.78° C | 48% | 1019 hPa | - | - | - | - |
| 1788341594 | 27.78° C | 48% | 1019 hPa | - | - | - | - |
| 1788340694 | 27.78° C | 48% | 1019 hPa | - | - | - | - |
| 1788339855 | 27.22° C | 51% | 1019 hPa | - | - | - | - |
* Rain since midnight (hover to see other rain measurements)
** Current wind speed in m/s (hover to see current wind gust speed)